createdAt,value
2023-02-23T00:00:28.693Z,78.90
2023-02-23T00:03:00.928Z,80.43
2023-02-23T00:05:29.702Z,83.85
2023-02-23T00:07:56.352Z,75.82
2023-02-23T00:10:30.564Z,85.38
2023-02-23T00:12:59.054Z,77.83
2023-02-23T00:15:29.855Z,77.72
2023-02-23T00:17:57.537Z,70.95
2023-02-23T00:20:26.185Z,73.82
2023-02-23T00:22:54.934Z,75.15
2023-02-23T00:25:22.249Z,75.83
2023-02-23T00:27:49.431Z,74.00
2023-02-23T00:30:18.822Z,73.15
2023-02-23T00:32:48.070Z,72.53
2023-02-23T00:35:18.275Z,77.78
2023-02-23T00:37:46.942Z,69.53
2023-02-23T00:40:16.591Z,71.68
2023-02-23T00:42:47.751Z,73.10
2023-02-23T00:45:15.080Z,72.38
2023-02-23T00:47:43.624Z,75.10
2023-02-23T00:50:15.699Z,61.53
2023-02-23T00:52:43.567Z,67.10
2023-02-23T00:55:12.135Z,73.80
2023-02-23T00:57:39.953Z,59.85
2023-02-23T01:00:20.429Z,61.38
2023-02-23T01:02:48.750Z,67.47
2023-02-23T01:05:16.524Z,66.50
2023-02-23T01:07:46.375Z,65.35
2023-02-23T01:10:19.388Z,64.95
2023-02-23T01:12:50.001Z,70.82
2023-02-23T01:15:17.377Z,67.97
2023-02-23T01:17:44.573Z,63.05
2023-02-23T01:20:18.212Z,66.63
2023-02-23T01:22:47.510Z,64.45
2023-02-23T01:25:15.234Z,69.07
2023-02-23T01:27:42.247Z,64.17
2023-02-23T01:30:11.012Z,64.32
2023-02-23T01:32:38.061Z,66.85
2023-02-23T01:35:07.753Z,67.60
2023-02-23T01:37:36.692Z,62.25
2023-02-23T01:40:10.773Z,65.23
2023-02-23T01:42:38.861Z,75.85
2023-02-23T01:45:27.060Z,73.10
2023-02-23T01:48:03.076Z,72.63
2023-02-23T01:50:37.196Z,73.28
2023-02-23T01:53:05.515Z,73.33
2023-02-23T01:55:34.345Z,68.90
2023-02-23T01:58:07.011Z,62.92
2023-02-23T02:00:36.568Z,75.38
2023-02-23T02:03:12.379Z,73.18
2023-02-23T02:05:39.460Z,69.40
2023-02-23T02:08:08.113Z,71.15
2023-02-23T02:10:40.659Z,71.55
2023-02-23T02:13:09.451Z,70.35
2023-02-23T02:15:54.389Z,77.57
2023-02-23T02:19:00.647Z,64.83
2023-02-23T02:21:43.231Z,70.45
2023-02-23T02:24:29.102Z,70.40
2023-02-23T02:27:21.785Z,66.18
2023-02-23T02:30:13.935Z,64.53
2023-02-23T02:33:03.563Z,61.27
2023-02-23T02:35:43.706Z,57.97
2023-02-23T02:38:22.083Z,63.45
2023-02-23T02:41:07.637Z,60.97
2023-02-23T02:43:51.047Z,56.42
2023-02-23T02:46:22.868Z,56.13
2023-02-23T02:49:11.777Z,53.95
2023-02-23T02:51:52.650Z,53.47
2023-02-23T02:54:37.897Z,54.85
2023-02-23T02:57:06.055Z,54.35
2023-02-23T03:00:05.650Z,56.60
2023-02-23T03:02:53.711Z,57.25
2023-02-23T03:05:43.011Z,57.63
2023-02-23T03:09:09.348Z,56.90
2023-02-23T03:11:59.556Z,53.20
2023-02-23T03:15:00.536Z,53.60
2023-02-23T03:17:56.937Z,59.08
2023-02-23T03:20:41.901Z,57.78
2023-02-23T03:23:36.137Z,57.15
2023-02-23T03:26:30.446Z,59.08
2023-02-23T03:29:35.914Z,55.53
2023-02-23T03:32:44.641Z,54.03
2023-02-23T03:35:44.032Z,57.08
2023-02-23T03:38:37.357Z,61.63
2023-02-23T03:41:26.121Z,57.22
2023-02-23T03:44:19.053Z,59.77
2023-02-23T03:47:06.524Z,58.33
2023-02-23T03:49:55.742Z,54.65
2023-02-23T03:52:46.342Z,63.25
2023-02-23T03:55:36.815Z,67.07
2023-02-23T03:58:25.718Z,58.20
2023-02-23T04:01:14.646Z,60.58
2023-02-23T04:04:02.950Z,61.85
2023-02-23T04:06:53.195Z,63.25
2023-02-23T04:09:38.114Z,60.92
2023-02-23T04:12:46.854Z,62.23
2023-02-23T04:15:25.108Z,56.60
2023-02-23T04:17:53.092Z,66.00
2023-02-23T04:20:20.279Z,65.97
2023-02-23T04:22:46.852Z,76.38
2023-02-23T04:25:17.331Z,65.77
2023-02-23T04:27:44.140Z,78.30
2023-02-23T04:30:11.584Z,60.38
2023-02-23T04:32:38.402Z,73.57
2023-02-23T04:35:05.277Z,72.80
2023-02-23T04:37:31.810Z,70.10
2023-02-23T04:39:58.531Z,70.13
2023-02-23T04:42:25.092Z,74.78
2023-02-23T04:44:51.645Z,64.00
2023-02-23T04:47:18.234Z,70.88
2023-02-23T04:49:44.734Z,74.30
2023-02-23T04:52:11.299Z,71.22
2023-02-23T04:54:39.262Z,73.07
2023-02-23T04:57:06.521Z,69.70
2023-02-23T04:59:33.273Z,67.47
2023-02-23T05:01:59.754Z,64.93
2023-02-23T05:04:26.253Z,66.40
2023-02-23T05:06:53.145Z,68.35
2023-02-23T05:09:19.687Z,76.93
2023-02-23T05:11:46.829Z,70.85
2023-02-23T05:14:13.353Z,64.27
2023-02-23T05:16:40.224Z,72.40
2023-02-23T05:19:06.795Z,68.88
2023-02-23T05:21:33.406Z,65.95
2023-02-23T05:24:00.229Z,75.10
2023-02-23T05:26:26.733Z,67.80
2023-02-23T05:28:53.251Z,67.00
2023-02-23T05:31:20.510Z,70.75
2023-02-23T05:33:47.303Z,78.03
2023-02-23T05:36:19.246Z,66.57
2023-02-23T05:38:47.060Z,72.40
2023-02-23T05:41:16.651Z,72.78
2023-02-23T05:43:43.409Z,72.07
2023-02-23T05:46:12.318Z,67.78
2023-02-23T05:48:38.866Z,77.07
2023-02-23T05:51:08.285Z,80.17
2023-02-23T05:53:35.449Z,73.00
2023-02-23T05:56:03.528Z,66.68
2023-02-23T05:58:30.500Z,70.88
2023-02-23T06:00:57.198Z,66.50
2023-02-23T06:03:23.984Z,67.77
2023-02-23T06:05:55.308Z,70.78
2023-02-23T06:08:21.807Z,75.95
2023-02-23T06:10:48.420Z,76.25
2023-02-23T06:13:15.227Z,77.88
2023-02-23T06:15:41.815Z,77.77
2023-02-23T06:18:09.111Z,73.82
2023-02-23T06:20:39.392Z,71.28
2023-02-23T06:23:07.478Z,84.88
2023-02-23T06:25:34.214Z,81.13
2023-02-23T06:28:00.787Z,85.80
2023-02-23T06:30:27.282Z,66.75
2023-02-23T06:32:53.851Z,77.28
2023-02-23T06:35:21.577Z,86.25
2023-02-23T06:37:48.599Z,79.28
2023-02-23T06:40:15.172Z,83.57
2023-02-23T06:42:41.845Z,81.75
2023-02-23T06:45:08.936Z,83.18
2023-02-23T06:47:35.514Z,84.75
2023-02-23T06:50:03.926Z,72.82
2023-02-23T06:52:30.498Z,81.10
2023-02-23T06:54:57.374Z,83.38
2023-02-23T06:57:23.962Z,82.47
2023-02-23T06:59:50.538Z,86.75
2023-02-23T07:02:17.729Z,73.93
2023-02-23T07:04:44.178Z,68.17
2023-02-23T07:07:11.407Z,85.82
2023-02-23T07:09:39.722Z,92.20
2023-02-23T07:12:06.421Z,79.03
2023-02-23T07:14:33.231Z,74.85
2023-02-23T07:16:59.776Z,74.17
2023-02-23T07:19:26.258Z,81.93
2023-02-23T07:21:53.531Z,81.55
2023-02-23T07:24:20.092Z,84.47
2023-02-23T07:26:47.279Z,84.85
2023-02-23T07:29:13.793Z,84.60
2023-02-23T07:31:40.517Z,80.07
2023-02-23T07:34:08.959Z,90.55
2023-02-23T07:36:36.036Z,84.47
2023-02-23T07:39:04.871Z,83.28
2023-02-23T07:41:31.823Z,79.83
2023-02-23T07:43:59.709Z,79.65
2023-02-23T07:46:26.668Z,81.13
2023-02-23T07:48:53.665Z,81.65
2023-02-23T07:51:20.988Z,85.03
2023-02-23T07:53:47.661Z,79.97
2023-02-23T07:56:14.535Z,77.70
2023-02-23T07:58:42.980Z,79.95
2023-02-23T08:01:10.872Z,84.88
2023-02-23T08:03:37.497Z,80.20
2023-02-23T08:06:04.401Z,81.73
2023-02-23T08:08:30.951Z,86.97
2023-02-23T08:11:02.393Z,78.10
2023-02-23T08:13:29.806Z,79.30
2023-02-23T08:15:56.908Z,76.00
2023-02-23T08:18:23.719Z,84.57
2023-02-23T08:20:50.512Z,78.60
2023-02-23T08:23:18.147Z,73.25
2023-02-23T08:25:44.762Z,77.43
2023-02-23T08:28:12.287Z,75.60
2023-02-23T08:30:41.489Z,75.03
2023-02-23T08:33:08.253Z,74.45
2023-02-23T08:35:34.838Z,77.03
2023-02-23T08:38:01.411Z,74.28
2023-02-23T08:40:28.021Z,74.10
2023-02-23T08:42:54.547Z,71.83
2023-02-23T08:45:21.103Z,69.70
2023-02-23T08:47:47.595Z,83.50
2023-02-23T08:50:16.095Z,77.82
2023-02-23T08:52:42.702Z,78.50
2023-02-23T08:55:11.688Z,69.33
2023-02-23T08:57:38.196Z,73.40
2023-02-23T09:00:13.982Z,83.22
2023-02-23T09:02:45.436Z,71.47
2023-02-23T09:05:12.064Z,69.25
2023-02-23T09:07:39.686Z,68.30
2023-02-23T09:10:07.253Z,73.07
2023-02-23T09:12:33.801Z,80.22
2023-02-23T09:15:00.371Z,70.15
2023-02-23T09:17:27.471Z,72.03
2023-02-23T09:19:53.972Z,73.03
2023-02-23T09:22:20.578Z,76.15
2023-02-23T09:24:47.161Z,76.75
2023-02-23T09:27:14.749Z,79.53
2023-02-23T09:29:44.484Z,74.93
2023-02-23T09:32:11.732Z,74.40
2023-02-23T09:34:38.402Z,71.30
2023-02-23T09:37:06.120Z,77.45
2023-02-23T09:39:38.587Z,74.65
2023-02-23T09:42:16.882Z,75.60
2023-02-23T09:45:08.367Z,58.83
2023-02-23T09:47:47.677Z,66.60
2023-02-23T09:50:22.543Z,71.55
2023-02-23T09:52:55.482Z,63.10
2023-02-23T09:55:22.352Z,67.13
2023-02-23T09:57:49.721Z,69.00
2023-02-23T10:00:20.399Z,62.85
2023-02-23T10:03:14.310Z,60.10
2023-02-23T10:05:47.825Z,63.50
2023-02-23T10:08:24.858Z,65.50
2023-02-23T10:11:08.321Z,65.27
2023-02-23T10:13:48.866Z,65.57
2023-02-23T10:16:23.853Z,66.43
2023-02-23T10:18:58.113Z,63.58
2023-02-23T10:21:35.949Z,62.30
2023-02-23T10:24:19.442Z,72.57
2023-02-23T10:26:58.187Z,62.85
2023-02-23T10:29:48.141Z,63.90
2023-02-23T10:32:46.161Z,65.82
2023-02-23T10:35:16.224Z,64.55
2023-02-23T10:37:42.718Z,64.43
2023-02-23T10:40:17.184Z,58.78
2023-02-23T10:42:43.944Z,61.35
2023-02-23T10:45:24.710Z,68.20
2023-02-23T10:48:01.771Z,61.10
2023-02-23T10:50:30.320Z,59.17
2023-02-23T10:53:00.750Z,62.80
2023-02-23T10:55:30.318Z,63.42
2023-02-23T10:58:18.359Z,64.40
2023-02-23T11:00:58.500Z,61.15
2023-02-23T11:03:57.661Z,63.20
2023-02-23T11:06:42.898Z,57.20
2023-02-23T11:09:44.531Z,58.58
2023-02-23T11:12:22.694Z,52.95
2023-02-23T11:14:54.756Z,63.40
2023-02-23T11:17:31.430Z,63.63
2023-02-23T11:20:05.846Z,61.28
2023-02-23T11:22:35.829Z,58.53
2023-02-23T11:25:12.872Z,57.05
2023-02-23T11:27:39.699Z,60.10
2023-02-23T11:30:07.116Z,57.63
2023-02-23T11:32:42.420Z,51.35
2023-02-23T11:35:16.448Z,50.95
2023-02-23T11:37:42.994Z,57.42
2023-02-23T11:40:34.756Z,58.85
2023-02-23T11:43:16.617Z,53.13
2023-02-23T11:45:51.823Z,60.92
2023-02-23T11:48:27.017Z,53.92
2023-02-23T11:50:54.788Z,49.97
2023-02-23T11:53:37.160Z,43.50
2023-02-23T11:56:12.503Z,47.50
2023-02-23T11:58:43.124Z,50.15
2023-02-23T12:01:13.694Z,44.55
2023-02-23T12:03:47.583Z,49.08
2023-02-23T12:06:36.666Z,50.72
2023-02-23T12:09:21.872Z,51.63
2023-02-23T12:12:02.841Z,51.45
2023-02-23T12:14:36.328Z,50.55
2023-02-23T12:17:17.874Z,49.92
2023-02-23T12:19:49.341Z,47.47
2023-02-23T12:22:20.046Z,43.03
2023-02-23T12:25:05.087Z,40.88
2023-02-23T12:27:43.377Z,39.40
2023-02-23T12:30:17.430Z,37.83
2023-02-23T12:32:49.325Z,40.38
2023-02-23T12:35:24.282Z,39.13
2023-02-23T12:37:58.543Z,39.22
2023-02-23T12:40:32.291Z,34.75
2023-02-23T12:43:14.417Z,37.03
2023-02-23T12:45:53.382Z,36.25
2023-02-23T12:48:31.919Z,33.20
2023-02-23T12:51:01.944Z,37.67
2023-02-23T12:53:28.454Z,36.78
2023-02-23T12:56:04.521Z,38.72
2023-02-23T12:58:50.030Z,30.77
2023-02-23T13:01:24.697Z,32.63
2023-02-23T13:04:08.847Z,33.20
2023-02-23T13:06:56.656Z,31.00
2023-02-23T13:09:44.320Z,29.23
2023-02-23T13:12:22.261Z,28.60
2023-02-23T13:15:18.421Z,28.07
2023-02-23T13:17:58.338Z,27.75
2023-02-23T13:20:37.875Z,30.02
2023-02-23T13:23:19.761Z,29.83
2023-02-23T13:25:57.466Z,27.67
2023-02-23T13:28:38.383Z,24.20
2023-02-23T13:31:06.052Z,31.73
2023-02-23T13:33:43.964Z,26.35
2023-02-23T13:36:12.812Z,30.77
2023-02-23T13:38:50.952Z,28.75
2023-02-23T13:41:41.201Z,23.87
2023-02-23T13:44:18.628Z,26.85
2023-02-23T13:46:56.197Z,24.40
2023-02-23T13:49:43.205Z,28.02
2023-02-23T13:52:39.810Z,29.17
2023-02-23T13:55:46.931Z,28.70
2023-02-23T13:58:18.441Z,27.27
2023-02-23T14:00:53.753Z,29.25
2023-02-23T14:03:24.438Z,30.15
2023-02-23T14:05:56.686Z,29.70
2023-02-23T14:08:34.878Z,28.03
2023-02-23T14:11:02.002Z,34.53
2023-02-23T14:13:41.080Z,31.70
2023-02-23T14:16:20.177Z,32.03
2023-02-23T14:18:58.948Z,31.60
2023-02-23T14:21:33.441Z,39.30
2023-02-23T14:24:22.836Z,31.65
2023-02-23T14:27:06.414Z,35.25
2023-02-23T14:29:41.720Z,32.80
2023-02-23T14:32:11.374Z,34.97
2023-02-23T14:34:59.842Z,31.43
2023-02-23T14:37:36.285Z,30.63
2023-02-23T14:40:20.951Z,34.78
2023-02-23T14:42:51.375Z,30.75
2023-02-23T14:45:34.001Z,33.00
2023-02-23T14:48:15.736Z,32.87
2023-02-23T14:50:43.190Z,29.20
2023-02-23T14:53:21.874Z,34.33
2023-02-23T14:55:49.786Z,30.13
2023-02-23T14:58:24.357Z,28.17
2023-02-23T15:00:52.077Z,37.70
2023-02-23T15:03:18.812Z,33.03
2023-02-23T15:06:05.755Z,31.55
2023-02-23T15:08:38.973Z,31.90
2023-02-23T15:11:12.622Z,35.28
2023-02-23T15:13:47.801Z,37.97
2023-02-23T15:16:23.152Z,36.70
2023-02-23T15:18:51.297Z,37.08
2023-02-23T15:21:22.637Z,34.63
2023-02-23T15:24:24.541Z,42.13
2023-02-23T15:26:51.830Z,35.70
2023-02-23T15:29:21.851Z,43.05
2023-02-23T15:31:54.328Z,45.22
2023-02-23T15:34:22.267Z,40.78
2023-02-23T15:37:01.813Z,43.47
2023-02-23T15:39:37.502Z,42.40
2023-02-23T15:42:05.837Z,39.17
2023-02-23T15:44:44.060Z,40.97
2023-02-23T15:47:21.419Z,46.60
2023-02-23T15:49:48.558Z,37.58
2023-02-23T15:52:26.134Z,38.27
2023-02-23T15:55:01.538Z,41.92
2023-02-23T15:57:34.889Z,42.45
2023-02-23T16:00:10.600Z,44.60
2023-02-23T16:02:37.652Z,44.13
2023-02-23T16:05:25.589Z,42.50
2023-02-23T16:08:06.572Z,46.72
2023-02-23T16:10:43.134Z,45.65
2023-02-23T16:13:12.922Z,43.92
2023-02-23T16:15:40.668Z,46.35
2023-02-23T16:18:15.910Z,28.97
2023-02-23T16:20:56.026Z,16.05
2023-02-23T16:23:34.163Z,14.35
2023-02-23T16:26:24.215Z,13.20
2023-02-23T16:28:56.438Z,12.38
2023-02-23T16:31:27.994Z,11.07
2023-02-23T16:34:01.716Z,16.80
2023-02-23T16:36:40.960Z,13.13
2023-02-23T16:39:12.549Z,8.90
2023-02-23T16:41:39.319Z,11.85
2023-02-23T16:44:07.653Z,12.70
2023-02-23T16:46:54.021Z,10.68
2023-02-23T16:49:23.239Z,8.02
2023-02-23T16:51:50.928Z,10.30
2023-02-23T16:54:17.487Z,21.60
2023-02-23T16:56:44.332Z,16.53
2023-02-23T16:59:15.395Z,21.48
2023-02-23T17:01:41.931Z,18.02
2023-02-23T17:04:15.437Z,26.05
2023-02-23T17:06:43.456Z,19.77
2023-02-23T17:09:10.831Z,21.40
2023-02-23T17:11:37.479Z,21.23
2023-02-23T17:14:04.017Z,22.95
2023-02-23T17:16:30.688Z,19.67
2023-02-23T17:18:59.478Z,16.33
2023-02-23T17:21:26.200Z,17.57
2023-02-23T17:23:53.054Z,18.90
2023-02-23T17:26:22.798Z,19.08
2023-02-23T17:28:50.010Z,23.33
2023-02-23T17:31:19.165Z,17.20
2023-02-23T17:33:46.946Z,13.67
2023-02-23T17:36:16.126Z,18.42
2023-02-23T17:38:44.512Z,19.65
2023-02-23T17:41:17.109Z,22.98
2023-02-23T17:43:44.068Z,22.42
2023-02-23T17:46:12.185Z,20.43
2023-02-23T17:48:40.953Z,22.17
2023-02-23T17:51:12.024Z,17.30
2023-02-23T17:53:39.974Z,18.60
2023-02-23T17:56:07.191Z,18.45
2023-02-23T17:58:34.336Z,19.00
2023-02-23T18:01:03.723Z,19.55
2023-02-23T18:03:32.464Z,18.42
2023-02-23T18:06:12.411Z,20.85
2023-02-23T18:08:40.396Z,16.38
2023-02-23T18:11:06.883Z,17.10
2023-02-23T18:13:33.790Z,18.02
2023-02-23T18:16:09.033Z,19.20
2023-02-23T18:18:38.460Z,21.05
2023-02-23T18:21:11.354Z,26.33
2023-02-23T18:23:37.979Z,14.07
2023-02-23T18:26:10.636Z,21.65
2023-02-23T18:28:38.634Z,23.63
2023-02-23T18:31:05.671Z,18.75
2023-02-23T18:33:35.682Z,12.63
2023-02-23T18:36:03.694Z,18.50
2023-02-23T18:38:30.236Z,13.82
2023-02-23T18:40:57.287Z,24.42
2023-02-23T18:43:23.800Z,17.35
2023-02-23T18:45:50.366Z,17.33
2023-02-23T18:48:16.940Z,16.63
2023-02-23T18:50:43.486Z,19.70
2023-02-23T18:53:10.933Z,20.27
2023-02-23T18:55:38.355Z,18.92
2023-02-23T18:58:05.684Z,20.75
2023-02-23T19:00:39.908Z,23.07
2023-02-23T19:03:07.155Z,15.05
2023-02-23T19:05:34.526Z,14.95
2023-02-23T19:08:01.012Z,16.02
2023-02-23T19:10:30.229Z,20.42
2023-02-23T19:12:56.856Z,15.77
2023-02-23T19:15:23.409Z,13.80
2023-02-23T19:17:49.884Z,24.58
2023-02-23T19:20:17.274Z,15.88
2023-02-23T19:22:43.894Z,20.17
2023-02-23T19:25:14.427Z,24.20
2023-02-23T19:27:41.440Z,11.65
2023-02-23T19:30:10.092Z,19.67
2023-02-23T19:32:39.470Z,18.02
2023-02-23T19:35:09.142Z,17.35
2023-02-23T19:37:36.563Z,21.53
2023-02-23T19:40:03.977Z,17.35
2023-02-23T19:42:32.538Z,14.10
2023-02-23T19:44:59.372Z,18.80
2023-02-23T19:47:25.880Z,23.90
2023-02-23T19:49:52.393Z,24.93
2023-02-23T19:52:19.051Z,21.23
2023-02-23T19:54:45.682Z,19.45
2023-02-23T19:57:12.269Z,29.38
2023-02-23T19:59:38.801Z,23.90
2023-02-23T20:02:05.287Z,25.13
2023-02-23T20:04:31.865Z,26.10
2023-02-23T20:06:58.523Z,20.70
2023-02-23T20:09:25.070Z,23.63
2023-02-23T20:11:51.592Z,24.65
2023-02-23T20:14:18.135Z,19.00
2023-02-23T20:16:44.727Z,22.45
2023-02-23T20:19:11.888Z,15.88
2023-02-23T20:21:39.569Z,21.92
2023-02-23T20:24:06.394Z,18.25
2023-02-23T20:26:35.478Z,20.80
2023-02-23T20:29:03.745Z,23.13
2023-02-23T20:31:35.048Z,30.27
2023-02-23T20:34:07.732Z,18.17
2023-02-23T20:36:34.449Z,17.67
2023-02-23T20:39:00.862Z,18.37
2023-02-23T20:41:28.576Z,26.88
2023-02-23T20:43:56.015Z,21.02
2023-02-23T20:46:22.641Z,23.00
2023-02-23T20:48:49.237Z,19.50
2023-02-23T20:51:19.063Z,21.83
2023-02-23T20:53:48.092Z,18.23
2023-02-23T20:56:17.133Z,16.15
2023-02-23T20:58:44.138Z,19.70
2023-02-23T21:01:16.209Z,17.65
2023-02-23T21:03:42.862Z,19.07
2023-02-23T21:06:09.456Z,15.70
2023-02-23T21:08:39.864Z,21.15
2023-02-23T21:11:07.733Z,20.70
2023-02-23T21:13:35.075Z,21.90
2023-02-23T21:16:02.999Z,21.57
2023-02-23T21:18:30.947Z,19.40
2023-02-23T21:21:06.551Z,19.55
2023-02-23T21:23:33.231Z,17.95
2023-02-23T21:26:07.038Z,13.70
2023-02-23T21:28:33.761Z,20.67
2023-02-23T21:31:00.299Z,17.10
2023-02-23T21:33:26.856Z,17.42
2023-02-23T21:35:58.529Z,19.20
2023-02-23T21:38:25.664Z,20.63
2023-02-23T21:40:52.185Z,20.77
2023-02-23T21:43:18.883Z,21.67
2023-02-23T21:45:49.392Z,14.07
2023-02-23T21:48:16.067Z,21.35
2023-02-23T21:50:42.591Z,23.10
2023-02-23T21:53:10.150Z,22.73
2023-02-23T21:55:38.469Z,17.25
2023-02-23T21:58:07.065Z,12.63
2023-02-23T22:00:35.672Z,18.70
2023-02-23T22:03:03.212Z,16.98
2023-02-23T22:05:29.777Z,22.90
2023-02-23T22:07:56.334Z,15.38
2023-02-23T22:10:24.116Z,21.83
2023-02-23T22:12:53.508Z,17.70
2023-02-23T22:15:20.097Z,14.13
2023-02-23T22:17:46.664Z,16.90
2023-02-23T22:20:13.479Z,16.75
2023-02-23T22:22:40.136Z,18.15
2023-02-23T22:25:08.081Z,14.43
2023-02-23T22:27:34.755Z,23.67
2023-02-23T22:30:01.858Z,18.37
2023-02-23T22:32:32.703Z,12.98
2023-02-23T22:35:00.291Z,12.25
2023-02-23T22:37:32.100Z,14.27
2023-02-23T22:40:08.073Z,14.95
2023-02-23T22:42:35.318Z,17.67
2023-02-23T22:45:01.829Z,16.55
2023-02-23T22:47:28.327Z,15.02
2023-02-23T22:49:54.839Z,13.25
2023-02-23T22:52:21.306Z,15.15
2023-02-23T22:54:48.021Z,17.03
2023-02-23T22:57:14.926Z,16.38
2023-02-23T22:59:54.351Z,18.67
2023-02-23T23:02:22.681Z,14.35
2023-02-23T23:04:49.230Z,10.90
2023-02-23T23:07:15.672Z,13.67
2023-02-23T23:09:42.139Z,14.23
2023-02-23T23:12:08.663Z,19.98
2023-02-23T23:14:35.282Z,17.02
2023-02-23T23:17:01.898Z,13.50
2023-02-23T23:19:29.141Z,10.33
2023-02-23T23:21:56.025Z,11.93
2023-02-23T23:24:24.034Z,10.80
2023-02-23T23:27:01.150Z,16.02
2023-02-23T23:29:30.232Z,11.93
2023-02-23T23:32:01.511Z,12.57
2023-02-23T23:34:28.117Z,14.70
2023-02-23T23:36:55.429Z,12.00
2023-02-23T23:39:23.599Z,12.25
2023-02-23T23:41:50.228Z,13.40
2023-02-23T23:44:24.756Z,14.30
2023-02-23T23:46:51.428Z,12.52
2023-02-23T23:49:22.942Z,14.90
2023-02-23T23:51:51.911Z,18.17
2023-02-23T23:54:30.705Z,15.43
2023-02-23T23:56:58.756Z,18.10
2023-02-23T23:59:26.672Z,13.43
